Susquehanna — WDD9976 — position and weather

sailwx.info

Track history (hours):
 
Tides and Currents Weather Stations Pressure Air Temp Water Temp Dewpoint Dewpoint Depression Visibility Wind Speed Wind Dir Waves Ship Positions

Susquehanna

Owner: Vane Line Bunkering, Inc., Baltimore, MD. More information available from US FCC via Universal Licensing System and Coast Guard Vessel Documentation Center.

Last reported at 2016-Feb-09 00:33 UTC. Time now 2016-Feb-09 01:30 UTC.
Position N 39°54' W 075°12'.

Length 28 m; draft 4.2 m.

Type: Tug. MMSI: 367318750.

Date/timePositionNaut miles runAvg speedWind from/ knotsBaromVisibWave heightAir tempDewpointWater temp
2016-Feb-09 00:33N 39°54' W 075°12'0 0.0
2016-Feb-08 23:33N 39°54' W 075°12'0 0.0
2016-Feb-08 22:34N 39°54' W 075°12'0 0.0
2016-Feb-08 21:33N 39°54' W 075°12'0 0.0
2016-Feb-08 20:33N 39°54' W 075°12'0 0.0
2016-Feb-08 19:34N 39°54' W 075°12'0 0.0
2016-Feb-08 18:33N 39°54' W 075°12'0 0.0
2016-Feb-08 17:33N 39°54' W 075°12'0 0.0
2016-Feb-08 16:33N 39°54' W 075°12'0 0.0
2016-Feb-08 15:33N 39°54' W 075°12'0 0.2
2016-Feb-08 14:34N 39°54' W 075°12'0 0.4
2016-Feb-08 13:33N 39°54' W 075°12'0 0.0
2016-Feb-08 12:34N 39°54' W 075°12'0 0.0
2016-Feb-08 08:22N 39°54' W 075°12'0 0.0
2016-Feb-08 07:34N 39°54' W 075°12'0 0.0
2016-Feb-08 06:34N 39°54' W 075°12'0 0.0
2016-Feb-08 05:33N 39°54' W 075°12'0 0.0
2016-Feb-08 04:33N 39°54' W 075°12'0 0.0
2016-Feb-08 03:34N 39°54' W 075°12'0 0.0
2016-Feb-08 02:33N 39°54' W 075°12'0 0.0
2016-Feb-08 01:34N 39°53' W 075°12'0 0.0
2016-Feb-08 00:34N 39°53' W 075°12'0 0.0
2016-Feb-07 23:34N 39°53' W 075°12'0 0.0
2016-Feb-07 22:33N 39°53' W 075°12'0 0.0
2016-Feb-07 21:33N 39°53' W 075°12'0 0.0
2016-Feb-07 20:33N 39°53' W 075°12'0 0.0
2016-Feb-07 19:33N 39°53' W 075°12'0 0.0
2016-Feb-07 18:33N 39°53' W 075°12'0 0.0
2016-Feb-07 17:33N 39°53' W 075°12'0 0.0
2016-Feb-07 16:34N 39°53' W 075°12'0 0.0
2016-Feb-07 15:33N 39°53' W 075°12'0 0.0
2016-Feb-07 14:33N 39°53' W 075°12'0 0.0
2016-Feb-07 13:33N 39°53' W 075°12'0 0.0
2016-Feb-07 12:33N 39°53' W 075°12'0 0.0
2016-Feb-07 11:33N 39°53' W 075°12'0 0.0
2016-Feb-07 10:33N 39°53' W 075°12'0 0.0
2016-Feb-07 09:33N 39°53' W 075°12'0 0.0
2016-Feb-07 08:33N 39°53' W 075°12'0 0.0
2016-Feb-07 07:33N 39°53' W 075°12'0 0.0
2016-Feb-07 06:33N 39°53' W 075°12'0 0.0
2016-Feb-07 05:33N 39°53' W 075°12'0 0.0
2016-Feb-07 04:33N 39°53' W 075°12'0 0.0
2016-Feb-07 03:33N 39°53' W 075°12'0 0.0
2016-Feb-07 02:33N 39°53' W 075°12'1 0.5
2016-Feb-07 01:33N 39°54' W 075°12'0 0.0
2016-Feb-07 00:33N 39°54' W 075°12'0 0.0
2016-Feb-06 23:33N 39°54' W 075°12'0 0.1
2016-Feb-06 22:33N 39°54' W 075°12'0 0.0
2016-Feb-06 21:33N 39°54' W 075°12'0 0.0
2016-Feb-06 20:33N 39°54' W 075°12'0 0.0
2016-Feb-06 19:33N 39°54' W 075°12'0 0.2
2016-Feb-06 18:33N 39°54' W 075°12'0 0.5
2016-Feb-06 17:33N 39°53' W 075°12'0 0.0
2016-Feb-06 16:33N 39°53' W 075°12'0 0.0
2016-Feb-06 15:33N 39°53' W 075°12'0 0.0
2016-Feb-06 14:33N 39°53' W 075°12'0 0.0
2016-Feb-06 13:33N 39°53' W 075°12'0 0.0
2016-Feb-06 12:33N 39°53' W 075°12'0 0.0
2016-Feb-06 11:33N 39°53' W 075°12'0 0.0
2016-Feb-06 10:33N 39°53' W 075°12'0 0.0
2016-Feb-06 09:33N 39°53' W 075°12'0 0.0
2016-Feb-06 08:33N 39°53' W 075°12'0 0.0
2016-Feb-06 07:33N 39°53' W 075°12'0 0.0
2016-Feb-06 06:33N 39°53' W 075°12'0 0.0
2016-Feb-06 05:33N 39°53' W 075°12'0 0.0
2016-Feb-06 04:33N 39°53' W 075°12'0 0.0
2016-Feb-06 03:33N 39°53' W 075°12'0 0.0
2016-Feb-06 02:33N 39°53' W 075°12'0 0.0
2016-Feb-06 01:33N 39°53' W 075°12'0 0.0
2016-Feb-06 00:33N 39°53' W 075°12'6 6.4
2016-Feb-05 23:33N 39°51' W 075°19'5 5.1
2016-Feb-05 22:34N 39°48' W 075°25'0 0.1
2016-Feb-05 21:34N 39°48' W 075°25'0 0.1
2016-Feb-05 20:34N 39°48' W 075°25'0 0.0
2016-Feb-05 19:34N 39°48' W 075°25'2 1.6
2016-Feb-05 18:33N 39°49' W 075°23'9 9.4
2016-Feb-05 17:33N 39°54' W 075°12'0 0.1
2016-Feb-05 16:33N 39°54' W 075°12'0 0.0
2016-Feb-05 15:33N 39°54' W 075°12'0 0.0
2016-Feb-05 14:33N 39°54' W 075°12'0 0.0
2016-Feb-05 13:33N 39°54' W 075°12'0 0.0
2016-Feb-05 12:33N 39°54' W 075°12'1 0.5
2016-Feb-05 11:33N 39°53' W 075°12'0 0.0
2016-Feb-05 10:33N 39°53' W 075°12'0 0.0
2016-Feb-05 09:33N 39°53' W 075°12'0 0.0
2016-Feb-05 08:33N 39°53' W 075°12'7 6.9
2016-Feb-05 07:33N 39°51' W 075°20'5 4.7
2016-Feb-05 06:33N 39°48' W 075°25'0 0.0
2016-Feb-05 05:33N 39°48' W 075°25'0 0.1
2016-Feb-05 04:33N 39°48' W 075°25'1 1.1
2016-Feb-05 03:33N 39°49' W 075°24'5 4.6
2016-Feb-05 02:33N 39°51' W 075°19'5 5.2
2016-Feb-05 01:33N 39°53' W 075°12'1 1.1
2016-Feb-05 00:34N 39°54' W 075°12'0 0.0
2016-Feb-04 23:33N 39°54' W 075°12'0 0.0
2016-Feb-04 22:33N 39°54' W 075°12'0 0.0
2016-Feb-04 21:33N 39°54' W 075°12'0 0.0
2016-Feb-04 20:33N 39°54' W 075°12'0 0.0
2016-Feb-04 19:33N 39°54' W 075°12'0 0.0
2016-Feb-04 18:33N 39°54' W 075°12'0 0.0
2016-Feb-04 17:33N 39°54' W 075°12'0 0.0
2016-Feb-04 16:33N 39°54' W 075°12'0 0.0
2016-Feb-04 15:33N 39°54' W 075°12'0 0.0
2016-Feb-04 14:33N 39°54' W 075°12'0 0.4
2016-Feb-04 13:34N 39°54' W 075°12'3 3.3
2016-Feb-04 12:33N 39°55' W 075°08'4 4.2
2016-Feb-04 11:33N 39°59' W 075°05'0 0.0
2016-Feb-04 10:33N 39°59' W 075°05'0 0.0
2016-Feb-04 09:33N 39°59' W 075°05'0 0.0
2016-Feb-04 08:33N 39°59' W 075°05'0 0.0
2016-Feb-04 07:33N 39°59' W 075°05'0 0.0
2016-Feb-04 06:33N 39°59' W 075°05'0 0.0
2016-Feb-04 05:33N 39°59' W 075°05'0 0.0
2016-Feb-04 04:33N 39°59' W 075°05'0 0.0
2016-Feb-04 03:33N 39°59' W 075°05'0 0.0
2016-Feb-04 02:33N 39°59' W 075°05'0 0.5
2016-Feb-04 01:33N 39°58' W 075°06'9 8.8
2016-Feb-04 00:33N 39°52' W 075°13'8 7.9
2016-Feb-03 23:33N 39°49' W 075°23'0 0.4
2016-Feb-03 22:30N 39°49' W 075°23'0 0.0
2016-Feb-03 21:34N 39°49' W 075°23'9 8.6
2016-Feb-03 20:33N 39°52' W 075°13'2 1.7
2016-Feb-03 19:33N 39°54' W 075°12'0 0.0
2016-Feb-03 18:31N 39°54' W 075°12'0 0.0
2016-Feb-03 17:32N 39°54' W 075°12'0 0.0
2016-Feb-03 16:29N 39°54' W 075°12'0 0.0
2016-Feb-03 15:33N 39°54' W 075°12'0 0.0
2016-Feb-03 14:31N 39°54' W 075°12'0 0.0
2016-Feb-03 13:31N 39°54' W 075°12'0 0.0
2016-Feb-03 12:32N 39°54' W 075°12'0 0.0
2016-Feb-03 11:33N 39°54' W 075°12'0 0.0
2016-Feb-03 10:33N 39°54' W 075°12'0 0.0
2016-Feb-03 09:31N 39°54' W 075°12'0 0.0
2016-Feb-03 08:32N 39°54' W 075°12'0 0.0
2016-Feb-03 07:29N 39°54' W 075°12'0 0.0
2016-Feb-03 06:33N 39°54' W 075°12'0 0.0
2016-Feb-03 05:31N 39°54' W 075°12'0 0.0
2016-Feb-03 04:31N 39°54' W 075°12'0 0.0
2016-Feb-03 03:32N 39°54' W 075°12'0 0.0
2016-Feb-03 02:33N 39°54' W 075°12'0 0.0
2016-Feb-03 01:33N 39°54' W 075°12'0 0.0
2016-Feb-03 00:31N 39°54' W 075°12'0 0.0
2016-Feb-02 23:32N 39°54' W 075°12'0 0.0
2016-Feb-02 22:32N 39°54' W 075°12'0 0.0
2016-Feb-02 21:33N 39°54' W 075°12'0 0.0
2016-Feb-02 20:31N 39°54' W 075°12'0 0.1
2016-Feb-02 19:32N 39°54' W 075°12'0 0.0
2016-Feb-02 18:27N 39°54' W 075°12'0 0.0
2016-Feb-02 17:28N 39°54' W 075°12'0 0.0
2016-Feb-02 16:31N 39°54' W 075°12'0 0.0
2016-Feb-02 15:32N 39°54' W 075°12'0 0.0
2016-Feb-02 14:33N 39°54' W 075°12'0 0.0
2016-Feb-02 13:33N 39°54' W 075°12'0 0.0
2016-Feb-02 12:31N 39°54' W 075°12'0 0.0
2016-Feb-02 11:32N 39°54' W 075°12'0 0.0
2016-Feb-02 10:32N 39°54' W 075°12'0 0.0
2016-Feb-02 09:33N 39°54' W 075°12'0 0.0
2016-Feb-02 08:31N 39°54' W 075°12'0 0.0
2016-Feb-02 07:31N 39°54' W 075°12'0 0.0
2016-Feb-02 06:32N 39°54' W 075°12'0 0.0
2016-Feb-02 05:33N 39°54' W 075°12'0 0.0
2016-Feb-02 04:33N 39°54' W 075°12'0 0.0
2016-Feb-02 03:31N 39°54' W 075°12'0 0.0
2016-Feb-02 02:32N 39°54' W 075°12'0 0.0
2016-Feb-02 01:32N 39°54' W 075°12'0 0.0
2016-Feb-02 00:33N 39°54' W 075°12'0 0.0
2016-Feb-01 23:31N 39°54' W 075°12'0 0.0
2016-Feb-01 22:31N 39°54' W 075°12'0 0.0
2016-Feb-01 21:32N 39°54' W 075°12'0 0.0
2016-Feb-01 20:30N 39°54' W 075°12'0 0.0
2016-Feb-01 19:33N 39°54' W 075°12'0 0.0
2016-Feb-01 18:31N 39°54' W 075°12'0 0.0
2016-Feb-01 17:32N 39°54' W 075°12'0 0.0
2016-Feb-01 16:33N 39°54' W 075°12'4 3.8
2016-Feb-01 15:33N 39°56' W 075°08'9 9.3
2016-Feb-01 14:33N 40°02' W 074°59'2 1.6
2016-Feb-01 13:09N 40°04' W 074°57'6 9.6
2016-Feb-01 12:34N 40°00' W 075°03'5 5.5
2016-Feb-01 11:33N 39°56' W 075°08'0 0.0
2016-Feb-01 10:31N 39°56' W 075°08'0 0.0
2016-Feb-01 09:32N 39°56' W 075°08'0 0.0
2016-Feb-01 08:32N 39°56' W 075°08'0 0.0
2016-Feb-01 07:33N 39°56' W 075°08'0 0.1
2016-Feb-01 06:31N 39°56' W 075°08'0 0.0
2016-Feb-01 05:28N 39°56' W 075°08'0 0.0
2016-Feb-01 04:32N 39°56' W 075°08'0 0.0
2016-Feb-01 03:33N 39°56' W 075°08'0 0.0
2016-Feb-01 02:33N 39°56' W 075°08'0 0.0
2016-Feb-01 01:31N 39°56' W 075°08'0 0.1
2016-Feb-01 00:32N 39°56' W 075°08'0 0.0
2016-Jan-31 23:32N 39°56' W 075°08'3 3.5
2016-Jan-31 22:33N 39°53' W 075°09'3 2.7
2016-Jan-31 21:31N 39°54' W 075°12'0 0.2
2016-Jan-31 20:31N 39°54' W 075°12'0 0.0
2016-Jan-31 19:32N 39°54' W 075°12'0 0.0
2016-Jan-31 18:33N 39°54' W 075°12'0 0.0
2016-Jan-31 17:30N 39°54' W 075°12'0 0.0
2016-Jan-31 16:31N 39°54' W 075°12'0 0.0
2016-Jan-31 15:32N 39°54' W 075°12'0 0.0
2016-Jan-31 14:32N 39°54' W 075°12'0 0.0
2016-Jan-31 13:33N 39°54' W 075°12'0 0.0
2016-Jan-31 12:31N 39°54' W 075°12'0 0.0
2016-Jan-31 11:31N 39°54' W 075°12'0 0.0
2016-Jan-31 10:32N 39°54' W 075°12'0 0.0
2016-Jan-31 09:33N 39°54' W 075°12'0 0.0
2016-Jan-31 08:33N 39°54' W 075°12'0 0.0
2016-Jan-31 07:31N 39°54' W 075°12'0 0.0
2016-Jan-31 06:17N 39°54' W 075°12'0 0.0
2016-Jan-31 05:32N 39°54' W 075°12'0 0.0
2016-Jan-31 04:33N 39°54' W 075°12'0 0.0
2016-Jan-31 03:31N 39°54' W 075°12'0 0.0
2016-Jan-31 02:31N 39°54' W 075°12'0 0.0
2016-Jan-31 01:32N 39°54' W 075°12'0 0.0
2016-Jan-31 00:33N 39°54' W 075°12'0 0.0
2016-Jan-30 23:33N 39°54' W 075°12'0 0.0
2016-Jan-30 22:31N 39°54' W 075°12'0 0.0
2016-Jan-30 21:29N 39°54' W 075°12'0 0.0
2016-Jan-30 20:32N 39°54' W 075°12'0 0.0
2016-Jan-30 19:33N 39°54' W 075°12'0 0.0
2016-Jan-30 18:31N 39°54' W 075°12'0 0.0
2016-Jan-30 17:31N 39°54' W 075°12'0 0.0
2016-Jan-30 16:32N 39°54' W 075°12'0 0.0
2016-Jan-30 15:33N 39°54' W 075°12'0 0.0
2016-Jan-30 14:33N 39°54' W 075°12'0 0.0
2016-Jan-30 13:31N 39°54' W 075°12'0 0.1
2016-Jan-30 12:31N 39°54' W 075°12'0 0.0
2016-Jan-30 11:28N 39°54' W 075°12'0 0.0
2016-Jan-30 10:33N 39°54' W 075°12'0 0.0
2016-Jan-30 09:33N 39°54' W 075°12'0 0.0
2016-Jan-30 08:31N 39°54' W 075°12'0 0.0
2016-Jan-30 07:32N 39°54' W 075°12'0 0.0
2016-Jan-30 06:32N 39°54' W 075°12'0 0.0
2016-Jan-30 05:33N 39°54' W 075°12'0 0.0
2016-Jan-30 01:27N 39°54' W 075°12'  
Track history (hours):
 
Tides and Currents Weather Stations Pressure Air Temp Water Temp Dewpoint Dewpoint Depression Visibility Wind Speed Wind Dir Waves Ship Positions

Susquehanna

Owner: Vane Line Bunkering, Inc., Baltimore, MD. More information available from US FCC via Universal Licensing System and Coast Guard Vessel Documentation Center.

Last reported at 2016-Feb-09 00:33 UTC. Time now 2016-Feb-09 01:30 UTC.
Position N 39°54' W 075°12'.

Length 28 m; draft 4.2 m.

Type: Tug. MMSI: 367318750.

Date/timePositionNaut miles runAvg speedWind from/ knotsBaromVisibWave heightAir tempDewpointWater temp
2016-Feb-09 00:33N 39°54' W 075°12'0 0.0
2016-Feb-08 23:33N 39°54' W 075°12'0 0.0
2016-Feb-08 22:34N 39°54' W 075°12'0 0.0
2016-Feb-08 21:33N 39°54' W 075°12'0 0.0
2016-Feb-08 20:33N 39°54' W 075°12'0 0.0
2016-Feb-08 19:34N 39°54' W 075°12'0 0.0
2016-Feb-08 18:33N 39°54' W 075°12'0 0.0
2016-Feb-08 17:33N 39°54' W 075°12'0 0.0
2016-Feb-08 16:33N 39°54' W 075°12'0 0.0
2016-Feb-08 15:33N 39°54' W 075°12'0 0.2
2016-Feb-08 14:34N 39°54' W 075°12'0 0.4
2016-Feb-08 13:33N 39°54' W 075°12'0 0.0
2016-Feb-08 12:34N 39°54' W 075°12'0 0.0
2016-Feb-08 08:22N 39°54' W 075°12'0 0.0
2016-Feb-08 07:34N 39°54' W 075°12'0 0.0
2016-Feb-08 06:34N 39°54' W 075°12'0 0.0
2016-Feb-08 05:33N 39°54' W 075°12'0 0.0
2016-Feb-08 04:33N 39°54' W 075°12'0 0.0
2016-Feb-08 03:34N 39°54' W 075°12'0 0.0
2016-Feb-08 02:33N 39°54' W 075°12'0 0.0
2016-Feb-08 01:34N 39°53' W 075°12'0 0.0
2016-Feb-08 00:34N 39°53' W 075°12'0 0.0
2016-Feb-07 23:34N 39°53' W 075°12'0 0.0
2016-Feb-07 22:33N 39°53' W 075°12'0 0.0
2016-Feb-07 21:33N 39°53' W 075°12'0 0.0
2016-Feb-07 20:33N 39°53' W 075°12'0 0.0
2016-Feb-07 19:33N 39°53' W 075°12'0 0.0
2016-Feb-07 18:33N 39°53' W 075°12'0 0.0
2016-Feb-07 17:33N 39°53' W 075°12'0 0.0
2016-Feb-07 16:34N 39°53' W 075°12'0 0.0
2016-Feb-07 15:33N 39°53' W 075°12'0 0.0
2016-Feb-07 14:33N 39°53' W 075°12'0 0.0
2016-Feb-07 13:33N 39°53' W 075°12'0 0.0
2016-Feb-07 12:33N 39°53' W 075°12'0 0.0
2016-Feb-07 11:33N 39°53' W 075°12'0 0.0
2016-Feb-07 10:33N 39°53' W 075°12'0 0.0
2016-Feb-07 09:33N 39°53' W 075°12'0 0.0
2016-Feb-07 08:33N 39°53' W 075°12'0 0.0
2016-Feb-07 07:33N 39°53' W 075°12'0 0.0
2016-Feb-07 06:33N 39°53' W 075°12'0 0.0
2016-Feb-07 05:33N 39°53' W 075°12'0 0.0
2016-Feb-07 04:33N 39°53' W 075°12'0 0.0
2016-Feb-07 03:33N 39°53' W 075°12'0 0.0
2016-Feb-07 02:33N 39°53' W 075°12'1 0.5
2016-Feb-07 01:33N 39°54' W 075°12'0 0.0
2016-Feb-07 00:33N 39°54' W 075°12'0 0.0
2016-Feb-06 23:33N 39°54' W 075°12'0 0.1
2016-Feb-06 22:33N 39°54' W 075°12'0 0.0
2016-Feb-06 21:33N 39°54' W 075°12'0 0.0
2016-Feb-06 20:33N 39°54' W 075°12'0 0.0
2016-Feb-06 19:33N 39°54' W 075°12'0 0.2
2016-Feb-06 18:33N 39°54' W 075°12'0 0.5
2016-Feb-06 17:33N 39°53' W 075°12'0 0.0
2016-Feb-06 16:33N 39°53' W 075°12'0 0.0
2016-Feb-06 15:33N 39°53' W 075°12'0 0.0
2016-Feb-06 14:33N 39°53' W 075°12'0 0.0
2016-Feb-06 13:33N 39°53' W 075°12'0 0.0
2016-Feb-06 12:33N 39°53' W 075°12'0 0.0
2016-Feb-06 11:33N 39°53' W 075°12'0 0.0
2016-Feb-06 10:33N 39°53' W 075°12'0 0.0
2016-Feb-06 09:33N 39°53' W 075°12'0 0.0
2016-Feb-06 08:33N 39°53' W 075°12'0 0.0
2016-Feb-06 07:33N 39°53' W 075°12'0 0.0
2016-Feb-06 06:33N 39°53' W 075°12'0 0.0
2016-Feb-06 05:33N 39°53' W 075°12'0 0.0
2016-Feb-06 04:33N 39°53' W 075°12'0 0.0
2016-Feb-06 03:33N 39°53' W 075°12'0 0.0
2016-Feb-06 02:33N 39°53' W 075°12'0 0.0
2016-Feb-06 01:33N 39°53' W 075°12'0 0.0
2016-Feb-06 00:33N 39°53' W 075°12'6 6.4
2016-Feb-05 23:33N 39°51' W 075°19'5 5.1
2016-Feb-05 22:34N 39°48' W 075°25'0 0.1
2016-Feb-05 21:34N 39°48' W 075°25'0 0.1
2016-Feb-05 20:34N 39°48' W 075°25'0 0.0
2016-Feb-05 19:34N 39°48' W 075°25'2 1.6
2016-Feb-05 18:33N 39°49' W 075°23'9 9.4
2016-Feb-05 17:33N 39°54' W 075°12'0 0.1
2016-Feb-05 16:33N 39°54' W 075°12'0 0.0
2016-Feb-05 15:33N 39°54' W 075°12'0 0.0
2016-Feb-05 14:33N 39°54' W 075°12'0 0.0
2016-Feb-05 13:33N 39°54' W 075°12'0 0.0
2016-Feb-05 12:33N 39°54' W 075°12'1 0.5
2016-Feb-05 11:33N 39°53' W 075°12'0 0.0
2016-Feb-05 10:33N 39°53' W 075°12'0 0.0
2016-Feb-05 09:33N 39°53' W 075°12'0 0.0
2016-Feb-05 08:33N 39°53' W 075°12'7 6.9
2016-Feb-05 07:33N 39°51' W 075°20'5 4.7
2016-Feb-05 06:33N 39°48' W 075°25'0 0.0
2016-Feb-05 05:33N 39°48' W 075°25'0 0.1
2016-Feb-05 04:33N 39°48' W 075°25'1 1.1
2016-Feb-05 03:33N 39°49' W 075°24'5 4.6
2016-Feb-05 02:33N 39°51' W 075°19'5 5.2
2016-Feb-05 01:33N 39°53' W 075°12'1 1.1
2016-Feb-05 00:34N 39°54' W 075°12'0 0.0
2016-Feb-04 23:33N 39°54' W 075°12'0 0.0
2016-Feb-04 22:33N 39°54' W 075°12'0 0.0
2016-Feb-04 21:33N 39°54' W 075°12'0 0.0
2016-Feb-04 20:33N 39°54' W 075°12'0 0.0
2016-Feb-04 19:33N 39°54' W 075°12'0 0.0
2016-Feb-04 18:33N 39°54' W 075°12'0 0.0
2016-Feb-04 17:33N 39°54' W 075°12'0 0.0
2016-Feb-04 16:33N 39°54' W 075°12'0 0.0
2016-Feb-04 15:33N 39°54' W 075°12'0 0.0
2016-Feb-04 14:33N 39°54' W 075°12'0 0.4
2016-Feb-04 13:34N 39°54' W 075°12'3 3.3
2016-Feb-04 12:33N 39°55' W 075°08'4 4.2
2016-Feb-04 11:33N 39°59' W 075°05'0 0.0
2016-Feb-04 10:33N 39°59' W 075°05'0 0.0
2016-Feb-04 09:33N 39°59' W 075°05'0 0.0
2016-Feb-04 08:33N 39°59' W 075°05'0 0.0
2016-Feb-04 07:33N 39°59' W 075°05'0 0.0
2016-Feb-04 06:33N 39°59' W 075°05'0 0.0
2016-Feb-04 05:33N 39°59' W 075°05'0 0.0
2016-Feb-04 04:33N 39°59' W 075°05'0 0.0
2016-Feb-04 03:33N 39°59' W 075°05'0 0.0
2016-Feb-04 02:33N 39°59' W 075°05'0 0.5
2016-Feb-04 01:33N 39°58' W 075°06'9 8.8
2016-Feb-04 00:33N 39°52' W 075°13'8 7.9
2016-Feb-03 23:33N 39°49' W 075°23'0 0.4
2016-Feb-03 22:30N 39°49' W 075°23'0 0.0
2016-Feb-03 21:34N 39°49' W 075°23'9 8.6
2016-Feb-03 20:33N 39°52' W 075°13'2 1.7
2016-Feb-03 19:33N 39°54' W 075°12'0 0.0
2016-Feb-03 18:31N 39°54' W 075°12'0 0.0
2016-Feb-03 17:32N 39°54' W 075°12'0 0.0
2016-Feb-03 16:29N 39°54' W 075°12'0 0.0
2016-Feb-03 15:33N 39°54' W 075°12'0 0.0
2016-Feb-03 14:31N 39°54' W 075°12'0 0.0
2016-Feb-03 13:31N 39°54' W 075°12'0 0.0
2016-Feb-03 12:32N 39°54' W 075°12'0 0.0
2016-Feb-03 11:33N 39°54' W 075°12'0 0.0
2016-Feb-03 10:33N 39°54' W 075°12'0 0.0
2016-Feb-03 09:31N 39°54' W 075°12'0 0.0
2016-Feb-03 08:32N 39°54' W 075°12'0 0.0
2016-Feb-03 07:29N 39°54' W 075°12'0 0.0
2016-Feb-03 06:33N 39°54' W 075°12'0 0.0
2016-Feb-03 05:31N 39°54' W 075°12'0 0.0
2016-Feb-03 04:31N 39°54' W 075°12'0 0.0
2016-Feb-03 03:32N 39°54' W 075°12'0 0.0
2016-Feb-03 02:33N 39°54' W 075°12'0 0.0
2016-Feb-03 01:33N 39°54' W 075°12'0 0.0
2016-Feb-03 00:31N 39°54' W 075°12'0 0.0
2016-Feb-02 23:32N 39°54' W 075°12'0 0.0
2016-Feb-02 22:32N 39°54' W 075°12'0 0.0
2016-Feb-02 21:33N 39°54' W 075°12'0 0.0
2016-Feb-02 20:31N 39°54' W 075°12'0 0.1
2016-Feb-02 19:32N 39°54' W 075°12'0 0.0
2016-Feb-02 18:27N 39°54' W 075°12'0 0.0
2016-Feb-02 17:28N 39°54' W 075°12'0 0.0
2016-Feb-02 16:31N 39°54' W 075°12'0 0.0
2016-Feb-02 15:32N 39°54' W 075°12'0 0.0
2016-Feb-02 14:33N 39°54' W 075°12'0 0.0
2016-Feb-02 13:33N 39°54' W 075°12'0 0.0
2016-Feb-02 12:31N 39°54' W 075°12'0 0.0
2016-Feb-02 11:32N 39°54' W 075°12'0 0.0
2016-Feb-02 10:32N 39°54' W 075°12'0 0.0
2016-Feb-02 09:33N 39°54' W 075°12'0 0.0
2016-Feb-02 08:31N 39°54' W 075°12'0 0.0
2016-Feb-02 07:31N 39°54' W 075°12'0 0.0
2016-Feb-02 06:32N 39°54' W 075°12'0 0.0
2016-Feb-02 05:33N 39°54' W 075°12'0 0.0
2016-Feb-02 04:33N 39°54' W 075°12'0 0.0
2016-Feb-02 03:31N 39°54' W 075°12'0 0.0
2016-Feb-02 02:32N 39°54' W 075°12'0 0.0
2016-Feb-02 01:32N 39°54' W 075°12'0 0.0
2016-Feb-02 00:33N 39°54' W 075°12'0 0.0
2016-Feb-01 23:31N 39°54' W 075°12'0 0.0
2016-Feb-01 22:31N 39°54' W 075°12'0 0.0
2016-Feb-01 21:32N 39°54' W 075°12'0 0.0
2016-Feb-01 20:30N 39°54' W 075°12'0 0.0
2016-Feb-01 19:33N 39°54' W 075°12'0 0.0
2016-Feb-01 18:31N 39°54' W 075°12'0 0.0
2016-Feb-01 17:32N 39°54' W 075°12'0 0.0
2016-Feb-01 16:33N 39°54' W 075°12'4 3.8
2016-Feb-01 15:33N 39°56' W 075°08'9 9.3
2016-Feb-01 14:33N 40°02' W 074°59'2 1.6
2016-Feb-01 13:09N 40°04' W 074°57'6 9.6
2016-Feb-01 12:34N 40°00' W 075°03'5 5.5
2016-Feb-01 11:33N 39°56' W 075°08'0 0.0
2016-Feb-01 10:31N 39°56' W 075°08'0 0.0
2016-Feb-01 09:32N 39°56' W 075°08'0 0.0
2016-Feb-01 08:32N 39°56' W 075°08'0 0.0
2016-Feb-01 07:33N 39°56' W 075°08'0 0.1
2016-Feb-01 06:31N 39°56' W 075°08'0 0.0
2016-Feb-01 05:28N 39°56' W 075°08'0 0.0
2016-Feb-01 04:32N 39°56' W 075°08'0 0.0
2016-Feb-01 03:33N 39°56' W 075°08'0 0.0
2016-Feb-01 02:33N 39°56' W 075°08'0 0.0
2016-Feb-01 01:31N 39°56' W 075°08'0 0.1
2016-Feb-01 00:32N 39°56' W 075°08'0 0.0
2016-Jan-31 23:32N 39°56' W 075°08'3 3.5
2016-Jan-31 22:33N 39°53' W 075°09'3 2.7
2016-Jan-31 21:31N 39°54' W 075°12'0 0.2
2016-Jan-31 20:31N 39°54' W 075°12'0 0.0
2016-Jan-31 19:32N 39°54' W 075°12'0 0.0
2016-Jan-31 18:33N 39°54' W 075°12'0 0.0
2016-Jan-31 17:30N 39°54' W 075°12'0 0.0
2016-Jan-31 16:31N 39°54' W 075°12'0 0.0
2016-Jan-31 15:32N 39°54' W 075°12'0 0.0
2016-Jan-31 14:32N 39°54' W 075°12'0 0.0
2016-Jan-31 13:33N 39°54' W 075°12'0 0.0
2016-Jan-31 12:31N 39°54' W 075°12'0 0.0
2016-Jan-31 11:31N 39°54' W 075°12'0 0.0
2016-Jan-31 10:32N 39°54' W 075°12'0 0.0
2016-Jan-31 09:33N 39°54' W 075°12'0 0.0
2016-Jan-31 08:33N 39°54' W 075°12'0 0.0
2016-Jan-31 07:31N 39°54' W 075°12'0 0.0
2016-Jan-31 06:17N 39°54' W 075°12'0 0.0
2016-Jan-31 05:32N 39°54' W 075°12'0 0.0
2016-Jan-31 04:33N 39°54' W 075°12'0 0.0
2016-Jan-31 03:31N 39°54' W 075°12'0 0.0
2016-Jan-31 02:31N 39°54' W 075°12'0 0.0
2016-Jan-31 01:32N 39°54' W 075°12'0 0.0
2016-Jan-31 00:33N 39°54' W 075°12'0 0.0
2016-Jan-30 23:33N 39°54' W 075°12'0 0.0
2016-Jan-30 22:31N 39°54' W 075°12'0 0.0
2016-Jan-30 21:29N 39°54' W 075°12'0 0.0
2016-Jan-30 20:32N 39°54' W 075°12'0 0.0
2016-Jan-30 19:33N 39°54' W 075°12'0 0.0
2016-Jan-30 18:31N 39°54' W 075°12'0 0.0
2016-Jan-30 17:31N 39°54' W 075°12'0 0.0
2016-Jan-30 16:32N 39°54' W 075°12'0 0.0
2016-Jan-30 15:33N 39°54' W 075°12'0 0.0
2016-Jan-30 14:33N 39°54' W 075°12'0 0.0
2016-Jan-30 13:31N 39°54' W 075°12'0 0.1
2016-Jan-30 12:31N 39°54' W 075°12'0 0.0
2016-Jan-30 11:28N 39°54' W 075°12'0 0.0
2016-Jan-30 10:33N 39°54' W 075°12'0 0.0
2016-Jan-30 09:33N 39°54' W 075°12'0 0.0
2016-Jan-30 08:31N 39°54' W 075°12'0 0.0
2016-Jan-30 07:32N 39°54' W 075°12'0 0.0
2016-Jan-30 06:32N 39°54' W 075°12'0 0.0
2016-Jan-30 05:33N 39°54' W 075°12'0 0.0
2016-Jan-30 01:27N 39°54' W 075°12'  

Dump ship's entire track history